Impacts METAR Board INFO
IDs:

KCVG - Cincinnati Intl, KY, US

Updated at: 0944 UTC 20 Nov 2017
Potential Impact None Slight Moderate High
Time19/21Z 19/22Z 19/23Z 20/00Z 20/01Z 20/02Z 20/03Z 20/04Z 20/05Z 20/06Z 20/07Z 20/08Z 20/09Z
VIS10 10 10 10 10 10 10 10 10 10 10 10 10
CIG33 -- -- -- -- -- -- -- -- -- -- -- --
CoverBKNSCTFEWFEWCLRCLRCLRCLRCLRCLRFEWFEWFEW
FltCatVFRVFRVFRVFRVFRVFRVFRVFRVFRVFRVFRVFRVFR
WX--------------------------
WDir290280280290280260250250220220260200210
WSpd13 15 5 6 5 4 5 4 3 3 4 4 5
WGst21 -- -- -- -- -- -- -- -- -- -- -- --
Raw hourly METARs
KCVG 192052Z 29013G21KT 10SM BKN033 03/M03 A3005 RMK AO2 PK WND 28026/2031 SLP178 T00331028 53008
KCVG 192152Z 28015KT 10SM SCT035 02/M04 A3006 RMK AO2 SLP183 T00221039
KCVG 192252Z 28005KT 10SM FEW035 FEW250 00/M04 A3008 RMK AO2 SLP190 T00001039
KCVG 192352Z 29006KT 10SM FEW250 00/M04 A3011 RMK AO2 PRESRR SLP202 T00001039 10039 21006 53022
KCVG 200052Z 28005KT 10SM CLR M01/M04 A3013 RMK AO2 SLP208 T10111039
KCVG 200152Z 26004KT 10SM CLR M02/M04 A3013 RMK AO2 SLP210 T10221039
KCVG 200252Z 25005KT 10SM CLR M02/M04 A3016 RMK AO2 SLP216 T10171044 53014
KCVG 200352Z 25004KT 10SM CLR M02/M04 A3016 RMK AO2 SLP218 T10171044
KCVG 200452Z 22003KT 10SM CLR M02/M04 A3016 RMK AO2 SLP219 T10171044 400501022
KCVG 200552Z 22003KT 10SM CLR M02/M05 A3017 RMK AO2 SLP222 T10221050 10000 21028 53004
KCVG 200652Z 26004KT 10SM FEW250 M02/M05 A3017 RMK AO2 SLP224 T10221050
KCVG 200752Z 20004KT 10SM FEW250 M04/M05 A3017 RMK AO2 SLP223 T10391050
KCVG 200852Z 21005KT 10SM FEW250 M04/M05 A3017 RMK AO2 SLP222 T10391050 51000